sensor_id;sensor_type;location;lat;lon;timestamp;pressure;altitude;pressure_sealevel;temperature;humidity
7168;BME280;3625;51.762;14.320;2022-12-24T00:02:18;99354.72;;;8.17;100.00
7168;BME280;3625;51.762;14.320;2022-12-24T00:04:48;99274.41;;;7.73;100.00
7168;BME280;3625;51.762;14.320;2022-12-24T00:07:23;99287.44;;;7.77;100.00
7168;BME280;3625;51.762;14.320;2022-12-24T00:09:52;99359.13;;;8.16;100.00
7168;BME280;3625;51.762;14.320;2022-12-24T00:12:22;99349.47;;;8.15;100.00
7168;BME280;3625;51.762;14.320;2022-12-24T00:14:53;99151.16;;;7.00;100.00
7168;BME280;3625;51.762;14.320;2022-12-24T00:17:22;99347.63;;;8.19;100.00
7168;BME280;3625;51.762;14.320;2022-12-24T00:19:50;99339.72;;;8.19;100.00
7168;BME280;3625;51.762;14.320;2022-12-24T00:22:20;99344.13;;;8.18;100.00
7168;BME280;3625;51.762;14.320;2022-12-24T00:24:49;99352.03;;;8.18;100.00
7168;BME280;3625;51.762;14.320;2022-12-24T00:27:20;99351.22;;;8.16;100.00
7168;BME280;3625;51.762;14.320;2022-12-24T00:29:50;99354.72;;;8.17;100.00
7168;BME280;3625;51.762;14.320;2022-12-24T00:32:23;99203.84;;;7.27;100.00
7168;BME280;3625;51.762;14.320;2022-12-24T00:34:52;99352.13;;;8.15;100.00
7168;BME280;3625;51.762;14.320;2022-12-24T00:37:27;99347.81;;;8.13;100.00
7168;BME280;3625;51.762;14.320;2022-12-24T00:39:56;99103.09;;;6.66;100.00
7168;BME280;3625;51.762;14.320;2022-12-24T00:42:26;99160.16;;;6.92;100.00
7168;BME280;3625;51.762;14.320;2022-12-24T00:44:54;99281.59;;;7.68;100.00
7168;BME280;3625;51.762;14.320;2022-12-24T00:47:24;99241.22;;;7.38;100.00
7168;BME280;3625;51.762;14.320;2022-12-24T00:49:53;99351.69;;;8.01;100.00
7168;BME280;3625;51.762;14.320;2022-12-24T00:52:22;99342.00;;;8.02;100.00
7168;BME280;3625;51.762;14.320;2022-12-24T00:54:51;99183.38;;;7.07;100.00
7168;BME280;3625;51.762;14.320;2022-12-24T00:57:20;99343.59;;;8.07;100.00
7168;BME280;3625;51.762;14.320;2022-12-24T00:59:50;99337.41;;;8.08;100.00
7168;BME280;3625;51.762;14.320;2022-12-24T01:02:19;99340.72;;;8.15;100.00
7168;BME280;3625;51.762;14.320;2022-12-24T01:04:49;99199.41;;;7.29;100.00
7168;BME280;3625;51.762;14.320;2022-12-24T01:07:37;99216.69;;;7.37;100.00
7168;BME280;3625;51.762;14.320;2022-12-24T01:10:08;99352.97;;;8.16;100.00
7168;BME280;3625;51.762;14.320;2022-12-24T01:12:37;99356.41;;;8.19;100.00
7168;BME280;3625;51.762;14.320;2022-12-24T01:15:08;99350.25;;;8.19;100.00
7168;BME280;3625;51.762;14.320;2022-12-24T01:17:39;99353.66;;;8.22;100.00
7168;BME280;3625;51.762;14.320;2022-12-24T01:20:15;99359.78;;;8.23;100.00
7168;BME280;3625;51.762;14.320;2022-12-24T01:22:44;99347.88;;;8.11;100.00
7168;BME280;3625;51.762;14.320;2022-12-24T01:25:12;99366.81;;;8.22;100.00
7168;BME280;3625;51.762;14.320;2022-12-24T01:27:41;99362.41;;;8.23;100.00
7168;BME280;3625;51.762;14.320;2022-12-24T01:30:13;99292.75;;;7.76;100.00
7168;BME280;3625;51.762;14.320;2022-12-24T01:32:42;99379.91;;;8.25;100.00
7168;BME280;3625;51.762;14.320;2022-12-24T01:35:15;99333.31;;;7.98;100.00
7168;BME280;3625;51.762;14.320;2022-12-24T01:37:44;99379.84;;;8.28;100.00
7168;BME280;3625;51.762;14.320;2022-12-24T01:40:16;99283.19;;;7.72;100.00
7168;BME280;3625;51.762;14.320;2022-12-24T01:43:12;99384.19;;;8.29;100.00
7168;BME280;3625;51.762;14.320;2022-12-24T01:45:55;99390.34;;;8.30;100.00
7168;BME280;3625;51.762;14.320;2022-12-24T01:48:37;99300.53;;;7.79;100.00
7168;BME280;3625;51.762;14.320;2022-12-24T01:51:19;99400.81;;;8.31;100.00
7168;BME280;3625;51.762;14.320;2022-12-24T01:53:57;99225.88;;;7.23;100.00
7168;BME280;3625;51.762;14.320;2022-12-24T01:56:29;99366.31;;;8.11;100.00
7168;BME280;3625;51.762;14.320;2022-12-24T01:59:05;99321.56;;;7.80;100.00
7168;BME280;3625;51.762;14.320;2022-12-24T02:01:37;99384.63;;;8.14;100.00
7168;BME280;3625;51.762;14.320;2022-12-24T02:04:16;99351.88;;;7.95;100.00
7168;BME280;3625;51.762;14.320;2022-12-24T02:06:51;99301.03;;;7.62;100.00
7168;BME280;3625;51.762;14.320;2022-12-24T02:09:20;99414.09;;;8.28;100.00
7168;BME280;3625;51.762;14.320;2022-12-24T02:11:49;99414.13;;;8.27;100.00
7168;BME280;3625;51.762;14.320;2022-12-24T02:14:18;99416.75;;;8.27;100.00
7168;BME280;3625;51.762;14.320;2022-12-24T02:16:57;99415.91;;;8.26;100.00
7168;BME280;3625;51.762;14.320;2022-12-24T02:20:16;99423.78;;;8.26;100.00
7168;BME280;3625;51.762;14.320;2022-12-24T02:23:14;99422.91;;;8.27;100.00
7168;BME280;3625;51.762;14.320;2022-12-24T02:26:13;99435.16;;;8.28;100.00
7168;BME280;3625;51.762;14.320;2022-12-24T02:29:15;99165.28;;;6.65;100.00
7168;BME280;3625;51.762;14.320;2022-12-24T02:31:55;99287.69;;;7.39;100.00
7168;BME280;3625;51.762;14.320;2022-12-24T02:34:37;99158.44;;;6.58;100.00
7168;BME280;3625;51.762;14.320;2022-12-24T02:37:15;99423.25;;;8.15;100.00
7168;BME280;3625;51.762;14.320;2022-12-24T02:39:52;99431.88;;;8.20;100.00
7168;BME280;3625;51.762;14.320;2022-12-24T02:42:30;99323.09;;;7.58;100.00
7168;BME280;3625;51.762;14.320;2022-12-24T02:45:06;99454.41;;;8.30;100.00
7168;BME280;3625;51.762;14.320;2022-12-24T02:47:38;99311.44;;;7.36;100.00
7168;BME280;3625;51.762;14.320;2022-12-24T02:50:15;99363.03;;;7.72;100.00
7168;BME280;3625;51.762;14.320;2022-12-24T02:52:46;99406.53;;;7.87;100.00
7168;BME280;3625;51.762;14.320;2022-12-24T02:55:21;99444.47;;;8.11;100.00
7168;BME280;3625;51.762;14.320;2022-12-24T02:58:11;99465.09;;;8.26;100.00
7168;BME280;3625;51.762;14.320;2022-12-24T03:00:58;99426.31;;;8.00;100.00
7168;BME280;3625;51.762;14.320;2022-12-24T03:04:03;99459.13;;;8.19;100.00
7168;BME280;3625;51.762;14.320;2022-12-24T03:06:46;99230.44;;;6.85;100.00
7168;BME280;3625;51.762;14.320;2022-12-24T03:09:24;99478.97;;;8.32;100.00
7168;BME280;3625;51.762;14.320;2022-12-24T03:12:01;99461.66;;;8.22;100.00
7168;BME280;3625;51.762;14.320;2022-12-24T03:14:33;99401.78;;;7.98;100.00
7168;BME280;3625;51.762;14.320;2022-12-24T03:17:03;99488.09;;;8.52;100.00
7168;BME280;3625;51.762;14.320;2022-12-24T03:19:34;99488.16;;;8.49;100.00
7168;BME280;3625;51.762;14.320;2022-12-24T03:22:10;99446.72;;;8.23;100.00
7168;BME280;3625;51.762;14.320;2022-12-24T03:24:39;99457.66;;;8.40;100.00
7168;BME280;3625;51.762;14.320;2022-12-24T03:27:11;99459.53;;;8.37;100.00
7168;BME280;3625;51.762;14.320;2022-12-24T03:29:40;99416.44;;;8.08;100.00
7168;BME280;3625;51.762;14.320;2022-12-24T03:32:09;99505.13;;;8.69;100.00
7168;BME280;3625;51.762;14.320;2022-12-24T03:34:39;99514.03;;;8.65;100.00
7168;BME280;3625;51.762;14.320;2022-12-24T03:37:08;99518.59;;;8.60;100.00
7168;BME280;3625;51.762;14.320;2022-12-24T03:39:37;99458.06;;;8.26;100.00
7168;BME280;3625;51.762;14.320;2022-12-24T03:42:05;99520.31;;;8.61;100.00
7168;BME280;3625;51.762;14.320;2022-12-24T03:44:34;99523.69;;;8.65;100.00
7168;BME280;3625;51.762;14.320;2022-12-24T03:47:03;99522.00;;;8.64;100.00
7168;BME280;3625;51.762;14.320;2022-12-24T03:49:31;99536.09;;;8.63;100.00
7168;BME280;3625;51.762;14.320;2022-12-24T03:52:03;99496.44;;;8.37;100.00
7168;BME280;3625;51.762;14.320;2022-12-24T03:54:32;99537.97;;;8.58;100.00
7168;BME280;3625;51.762;14.320;2022-12-24T03:57:00;99437.75;;;7.99;100.00
7168;BME280;3625;51.762;14.320;2022-12-24T03:59:30;99552.94;;;8.57;100.00
7168;BME280;3625;51.762;14.320;2022-12-24T04:01:58;99558.16;;;8.59;100.00
7168;BME280;3625;51.762;14.320;2022-12-24T04:04:28;99571.38;;;8.57;100.00
7168;BME280;3625;51.762;14.320;2022-12-24T04:06:58;99555.78;;;8.50;100.00
7168;BME280;3625;51.762;14.320;2022-12-24T04:09:28;99502.16;;;8.20;100.00
7168;BME280;3625;51.762;14.320;2022-12-24T04:11:57;99578.34;;;8.60;100.00
7168;BME280;3625;51.762;14.320;2022-12-24T04:14:26;99581.13;;;8.55;100.00
7168;BME280;3625;51.762;14.320;2022-12-24T04:16:55;99583.63;;;8.60;100.00
7168;BME280;3625;51.762;14.320;2022-12-24T04:19:26;99449.91;;;7.72;100.00
7168;BME280;3625;51.762;14.320;2022-12-24T04:21:55;99588.28;;;8.50;100.00
7168;BME280;3625;51.762;14.320;2022-12-24T04:24:24;99599.69;;;8.51;100.00
7168;BME280;3625;51.762;14.320;2022-12-24T04:26:53;99593.53;;;8.52;100.00
7168;BME280;3625;51.762;14.320;2022-12-24T04:29:22;99604.13;;;8.49;100.00
7168;BME280;3625;51.762;14.320;2022-12-24T04:31:51;99607.75;;;8.46;100.00
7168;BME280;3625;51.762;14.320;2022-12-24T04:34:20;99609.47;;;8.47;100.00
7168;BME280;3625;51.762;14.320;2022-12-24T04:36:49;99583.03;;;8.16;100.00
7168;BME280;3625;51.762;14.320;2022-12-24T04:39:18;99612.19;;;8.44;100.00
7168;BME280;3625;51.762;14.320;2022-12-24T04:41:46;99613.09;;;8.43;100.00
7168;BME280;3625;51.762;14.320;2022-12-24T04:44:16;99586.50;;;8.18;100.00
7168;BME280;3625;51.762;14.320;2022-12-24T04:46:45;99596.97;;;8.21;100.00
7168;BME280;3625;51.762;14.320;2022-12-24T04:49:14;99628.03;;;8.43;100.00
7168;BME280;3625;51.762;14.320;2022-12-24T04:51:42;99630.72;;;8.40;100.00
7168;BME280;3625;51.762;14.320;2022-12-24T04:54:11;99628.28;;;8.33;100.00
7168;BME280;3625;51.762;14.320;2022-12-24T04:56:40;99546.31;;;7.78;100.00
7168;BME280;3625;51.762;14.320;2022-12-24T04:59:08;99643.25;;;8.31;100.00
7168;BME280;3625;51.762;14.320;2022-12-24T05:01:38;99647.75;;;8.26;100.00
7168;BME280;3625;51.762;14.320;2022-12-24T05:04:10;99645.00;;;8.32;100.00
7168;BME280;3625;51.762;14.320;2022-12-24T05:06:39;99645.88;;;8.31;100.00
7168;BME280;3625;51.762;14.320;2022-12-24T05:09:07;99654.66;;;8.30;100.00
7168;BME280;3625;51.762;14.320;2022-12-24T05:11:36;99652.03;;;8.30;100.00
7168;BME280;3625;51.762;14.320;2022-12-24T05:14:05;99634.16;;;8.09;100.00
7168;BME280;3625;51.762;14.320;2022-12-24T05:16:33;99661.03;;;8.22;100.00
7168;BME280;3625;51.762;14.320;2022-12-24T05:19:03;99485.78;;;7.07;100.00
7168;BME280;3625;51.762;14.320;2022-12-24T05:21:32;99677.91;;;8.15;100.00
7168;BME280;3625;51.762;14.320;2022-12-24T05:24:01;99678.78;;;8.15;100.00
7168;BME280;3625;51.762;14.320;2022-12-24T05:26:50;99679.72;;;8.13;100.00
7168;BME280;3625;51.762;14.320;2022-12-24T05:29:20;99681.59;;;8.08;100.00
7168;BME280;3625;51.762;14.320;2022-12-24T05:31:49;99687.91;;;8.02;100.00
7168;BME280;3625;51.762;14.320;2022-12-24T05:34:21;99583.97;;;7.44;100.00
7168;BME280;3625;51.762;14.320;2022-12-24T05:36:49;99702.81;;;8.02;100.00
7168;BME280;3625;51.762;14.320;2022-12-24T05:39:18;99707.22;;;8.01;100.00
7168;BME280;3625;51.762;14.320;2022-12-24T05:41:47;99720.44;;;8.00;100.00
7168;BME280;3625;51.762;14.320;2022-12-24T05:44:16;99724.97;;;7.93;100.00
7168;BME280;3625;51.762;14.320;2022-12-24T05:46:47;99718.16;;;7.84;100.00
7168;BME280;3625;51.762;14.320;2022-12-24T05:49:16;99677.59;;;7.54;100.00
7168;BME280;3625;51.762;14.320;2022-12-24T05:51:46;99741.84;;;7.86;100.00
7168;BME280;3625;51.762;14.320;2022-12-24T05:54:29;99743.56;;;7.87;100.00
7168;BME280;3625;51.762;14.320;2022-12-24T05:57:03;99709.81;;;7.66;100.00
7168;BME280;3625;51.762;14.320;2022-12-24T05:59:34;99746.19;;;7.87;100.00
7168;BME280;3625;51.762;14.320;2022-12-24T06:02:15;99754.09;;;7.87;100.00
7168;BME280;3625;51.762;14.320;2022-12-24T06:04:44;99761.16;;;7.85;100.00
7168;BME280;3625;51.762;14.320;2022-12-24T06:07:14;99766.47;;;7.82;100.00
7168;BME280;3625;51.762;14.320;2022-12-24T06:09:43;99766.47;;;7.83;100.00
7168;BME280;3625;51.762;14.320;2022-12-24T06:12:11;99771.75;;;7.82;100.00
7168;BME280;3625;51.762;14.320;2022-12-24T06:14:40;99768.38;;;7.75;100.00
7168;BME280;3625;51.762;14.320;2022-12-24T06:17:09;99775.38;;;7.78;100.00
7168;BME280;3625;51.762;14.320;2022-12-24T06:19:38;99769.28;;;7.74;100.00
7168;BME280;3625;51.762;14.320;2022-12-24T06:22:07;99655.19;;;6.97;100.00
7168;BME280;3625;51.762;14.320;2022-12-24T06:24:37;99732.47;;;7.31;100.00
7168;BME280;3625;51.762;14.320;2022-12-24T06:27:06;99791.38;;;7.67;100.00
7168;BME280;3625;51.762;14.320;2022-12-24T06:29:36;99795.78;;;7.67;100.00
7168;BME280;3625;51.762;14.320;2022-12-24T06:32:07;99627.00;;;6.59;100.00
7168;BME280;3625;51.762;14.320;2022-12-24T06:34:39;99804.72;;;7.60;100.00
7168;BME280;3625;51.762;14.320;2022-12-24T06:37:07;99731.09;;;7.13;100.00
7168;BME280;3625;51.762;14.320;2022-12-24T06:39:46;99696.66;;;6.82;100.00
7168;BME280;3625;51.762;14.320;2022-12-24T06:42:15;99819.72;;;7.54;100.00
7168;BME280;3625;51.762;14.320;2022-12-24T06:44:43;99644.81;;;6.44;100.00
7168;BME280;3625;51.762;14.320;2022-12-24T06:47:12;99836.41;;;7.53;100.00
7168;BME280;3625;51.762;14.320;2022-12-24T06:49:41;99837.34;;;7.51;100.00
7168;BME280;3625;51.762;14.320;2022-12-24T06:52:09;99635.53;;;6.25;100.00
7168;BME280;3625;51.762;14.320;2022-12-24T06:54:38;99814.88;;;7.33;100.00
7168;BME280;3625;51.762;14.320;2022-12-24T06:57:08;99851.44;;;7.47;100.00
7168;BME280;3625;51.762;14.320;2022-12-24T06:59:36;99852.41;;;7.43;100.00
7168;BME280;3625;51.762;14.320;2022-12-24T07:02:05;99820.41;;;7.19;100.00
7168;BME280;3625;51.762;14.320;2022-12-24T07:04:34;99764.16;;;6.80;100.00
7168;BME280;3625;51.762;14.320;2022-12-24T07:07:03;99855.06;;;7.41;100.00
7168;BME280;3625;51.762;14.320;2022-12-24T07:09:32;99864.72;;;7.41;100.00
7168;BME280;3625;51.762;14.320;2022-12-24T07:12:00;99807.38;;;7.12;100.00
7168;BME280;3625;51.762;14.320;2022-12-24T07:14:31;99765.00;;;6.82;100.00
7168;BME280;3625;51.762;14.320;2022-12-24T07:17:00;99870.03;;;7.39;100.00
7168;BME280;3625;51.762;14.320;2022-12-24T07:19:29;99825.00;;;7.08;100.00
7168;BME280;3625;51.762;14.320;2022-12-24T07:22:02;99780.81;;;6.79;100.00
7168;BME280;3625;51.762;14.320;2022-12-24T07:24:38;99882.25;;;7.42;100.00
7168;BME280;3625;51.762;14.320;2022-12-24T07:27:07;99892.75;;;7.43;100.00
7168;BME280;3625;51.762;14.320;2022-12-24T07:29:38;99892.72;;;7.45;100.00
7168;BME280;3625;51.762;14.320;2022-12-24T07:32:08;99805.19;;;6.89;100.00
7168;BME280;3625;51.762;14.320;2022-12-24T07:34:36;99759.41;;;6.52;100.00
7168;BME280;3625;51.762;14.320;2022-12-24T07:37:06;99897.09;;;7.44;100.00
7168;BME280;3625;51.762;14.320;2022-12-24T07:39:34;99905.88;;;7.45;100.00
7168;BME280;3625;51.762;14.320;2022-12-24T07:42:03;99748.09;;;6.48;100.00
7168;BME280;3625;51.762;14.320;2022-12-24T07:44:36;99918.97;;;7.49;100.00
7168;BME280;3625;51.762;14.320;2022-12-24T07:47:05;99832.97;;;7.04;100.00
7168;BME280;3625;51.762;14.320;2022-12-24T07:49:36;99906.81;;;7.42;100.00
7168;BME280;3625;51.762;14.320;2022-12-24T07:52:05;99912.78;;;7.52;100.00
7168;BME280;3625;51.762;14.320;2022-12-24T07:54:34;99832.97;;;7.04;100.00
7168;BME280;3625;51.762;14.320;2022-12-24T07:57:03;99932.00;;;7.55;100.00
7168;BME280;3625;51.762;14.320;2022-12-24T07:59:31;99922.34;;;7.56;100.00
7168;BME280;3625;51.762;14.320;2022-12-24T08:02:01;99904.81;;;7.53;100.00
7168;BME280;3625;51.762;14.320;2022-12-24T08:04:31;99931.81;;;7.66;100.00
7168;BME280;3625;51.762;14.320;2022-12-24T08:07:02;99938.78;;;7.69;100.00
7168;BME280;3625;51.762;14.320;2022-12-24T08:09:34;99946.59;;;7.72;100.00
7168;BME280;3625;51.762;14.320;2022-12-24T08:12:04;99938.69;;;7.73;100.00
7168;BME280;3625;51.762;14.320;2022-12-24T08:14:33;99941.28;;;7.75;100.00
7168;BME280;3625;51.762;14.320;2022-12-24T08:17:21;99730.53;;;6.50;100.00
7168;BME280;3625;51.762;14.320;2022-12-24T08:19:58;99942.88;;;7.83;100.00
7168;BME280;3625;51.762;14.320;2022-12-24T08:22:28;99943.72;;;7.85;100.00
7168;BME280;3625;51.762;14.320;2022-12-24T08:24:57;99944.50;;;7.89;100.00
7168;BME280;3625;51.762;14.320;2022-12-24T08:27:26;99951.53;;;7.88;100.00
7168;BME280;3625;51.762;14.320;2022-12-24T08:29:58;99964.63;;;7.93;100.00
7168;BME280;3625;51.762;14.320;2022-12-24T08:32:28;99729.50;;;6.59;100.00
7168;BME280;3625;51.762;14.320;2022-12-24T08:34:57;99969.00;;;7.95;100.00
7168;BME280;3625;51.762;14.320;2022-12-24T08:37:26;99969.81;;;7.97;100.00
7168;BME280;3625;51.762;14.320;2022-12-24T08:39:55;99984.53;;;8.08;100.00
7168;BME280;3625;51.762;14.320;2022-12-24T08:42:24;99982.69;;;8.13;100.00
7168;BME280;3625;51.762;14.320;2022-12-24T08:44:53;99978.94;;;8.24;100.00
7168;BME280;3625;51.762;14.320;2022-12-24T08:47:22;99980.50;;;8.35;100.00
7168;BME280;3625;51.762;14.320;2022-12-24T08:49:52;99968.25;;;8.32;100.00
7168;BME280;3625;51.762;14.320;2022-12-24T08:52:20;99996.97;;;8.46;100.00
7168;BME280;3625;51.762;14.320;2022-12-24T08:54:52;99984.88;;;8.36;100.00
7168;BME280;3625;51.762;14.320;2022-12-24T08:57:21;99999.59;;;8.47;100.00
7168;BME280;3625;51.762;14.320;2022-12-24T08:59:49;99928.28;;;8.10;100.00
7168;BME280;3625;51.762;14.320;2022-12-24T09:02:19;100008.00;;;8.64;100.00
7168;BME280;3625;51.762;14.320;2022-12-24T09:04:48;100006.13;;;8.69;100.00
7168;BME280;3625;51.762;14.320;2022-12-24T09:07:18;99942.78;;;8.32;100.00
7168;BME280;3625;51.762;14.320;2022-12-24T09:09:47;100023.66;;;8.72;100.00
7168;BME280;3625;51.762;14.320;2022-12-24T09:12:16;100019.88;;;8.82;100.00
7168;BME280;3625;51.762;14.320;2022-12-24T09:14:49;100030.09;;;8.99;100.00
7168;BME280;3625;51.762;14.320;2022-12-24T09:17:18;100031.72;;;9.04;100.00
7168;BME280;3625;51.762;14.320;2022-12-24T09:19:52;100027.06;;;9.16;100.00
7168;BME280;3625;51.762;14.320;2022-12-24T09:22:23;100027.66;;;9.27;100.00
7168;BME280;3625;51.762;14.320;2022-12-24T09:24:53;100028.50;;;9.29;100.00
7168;BME280;3625;51.762;14.320;2022-12-24T09:27:22;100046.56;;;9.45;100.00
7168;BME280;3625;51.762;14.320;2022-12-24T09:29:51;100041.13;;;9.52;100.00
7168;BME280;3625;51.762;14.320;2022-12-24T09:32:20;100044.69;;;9.51;100.00
7168;BME280;3625;51.762;14.320;2022-12-24T09:34:49;100056.22;;;9.46;100.00
7168;BME280;3625;51.762;14.320;2022-12-24T09:37:18;100052.72;;;9.46;100.00
7168;BME280;3625;51.762;14.320;2022-12-24T09:39:49;100045.72;;;9.43;100.00
7168;BME280;3625;51.762;14.320;2022-12-24T09:42:40;100052.72;;;9.46;100.00
7168;BME280;3625;51.762;14.320;2022-12-24T09:45:18;100043.03;;;9.46;100.00
7168;BME280;3625;51.762;14.320;2022-12-24T09:47:54;99874.69;;;8.53;100.00
7168;BME280;3625;51.762;14.320;2022-12-24T09:50:33;100011.53;;;9.39;100.00
7168;BME280;3625;51.762;14.320;2022-12-24T09:53:14;99996.63;;;9.36;100.00
7168;BME280;3625;51.762;14.320;2022-12-24T09:55:51;99772.63;;;8.21;100.00
7168;BME280;3625;51.762;14.320;2022-12-24T09:58:27;100037.72;;;9.82;100.00
7168;BME280;3625;51.762;14.320;2022-12-24T10:01:00;100072.06;;;9.82;100.00
7168;BME280;3625;51.762;14.320;2022-12-24T10:03:29;100078.19;;;9.84;100.00
7168;BME280;3625;51.762;14.320;2022-12-24T10:06:07;100044.78;;;9.81;100.00
7168;BME280;3625;51.762;14.320;2022-12-24T10:08:57;100070.28;;;10.18;100.00
7168;BME280;3625;51.762;14.320;2022-12-24T10:11:41;100078.63;;;10.35;100.00
7168;BME280;3625;51.762;14.320;2022-12-24T10:14:28;100034.47;;;10.05;100.00
7168;BME280;3625;51.762;14.320;2022-12-24T10:20:23;100090.84;;;10.39;100.00
7168;BME280;3625;51.762;14.320;2022-12-24T10:23:04;100059.97;;;10.07;100.00
7168;BME280;3625;51.762;14.320;2022-12-24T10:25:44;100080.84;;;10.18;100.00
7168;BME280;3625;51.762;14.320;2022-12-24T10:28:20;100051.41;;;9.98;100.00
7168;BME280;3625;51.762;14.320;2022-12-24T10:30:54;100087.47;;;10.00;100.00
7168;BME280;3625;51.762;14.320;2022-12-24T10:33:32;100109.72;;;10.26;100.00
7168;BME280;3625;51.762;14.320;2022-12-24T10:36:03;100123.69;;;10.31;100.00
7168;BME280;3625;51.762;14.320;2022-12-24T10:38:39;100029.34;;;9.66;100.00
7168;BME280;3625;51.762;14.320;2022-12-24T10:41:08;100086.47;;;10.04;100.00
7168;BME280;3625;51.762;14.320;2022-12-24T10:43:39;100127.72;;;10.45;100.00
7168;BME280;3625;51.762;14.320;2022-12-24T10:46:17;100122.94;;;10.58;100.00
7168;BME280;3625;51.762;14.320;2022-12-24T10:48:53;100133.28;;;10.67;100.00
7168;BME280;3625;51.762;14.320;2022-12-24T10:51:31;100121.00;;;10.65;100.00
7168;BME280;3625;51.762;14.320;2022-12-24T10:54:07;100149.50;;;10.86;100.00
7168;BME280;3625;51.762;14.320;2022-12-24T10:56:45;100052.00;;;10.41;100.00
7168;BME280;3625;51.762;14.320;2022-12-24T10:59:27;100066.09;;;10.42;100.00
7168;BME280;3625;51.762;14.320;2022-12-24T11:01:59;100159.69;;;10.69;100.00
7168;BME280;3625;51.762;14.320;2022-12-24T11:04:30;100170.53;;;10.59;100.00
7168;BME280;3625;51.762;14.320;2022-12-24T11:19:02;100199.19;;;10.75;100.00
7168;BME280;3625;51.762;14.320;2022-12-24T11:21:35;100078.69;;;9.98;100.00
7168;BME280;3625;51.762;14.320;2022-12-24T11:24:20;100125.81;;;10.16;100.00
7168;BME280;3625;51.762;14.320;2022-12-24T11:26:52;100219.53;;;10.73;100.00
7168;BME280;3625;51.762;14.320;2022-12-24T11:29:24;100208.41;;;10.60;100.00
7168;BME280;3625;51.762;14.320;2022-12-24T11:32:17;100214.09;;;10.79;100.00
7168;BME280;3625;51.762;14.320;2022-12-24T11:34:47;100226.09;;;10.90;100.00
7168;BME280;3625;51.762;14.320;2022-12-24T11:37:20;100229.34;;;11.02;100.00
7168;BME280;3625;51.762;14.320;2022-12-24T11:39:52;100226.69;;;11.02;100.00
7168;BME280;3625;51.762;14.320;2022-12-24T11:42:29;100235.13;;;10.83;100.00
7168;BME280;3625;51.762;14.320;2022-12-24T11:45:02;100235.16;;;10.49;100.00
7168;BME280;3625;51.762;14.320;2022-12-24T11:47:35;100235.81;;;10.22;100.00
7168;BME280;3625;51.762;14.320;2022-12-24T11:50:27;100216.47;;;9.83;100.00
7168;BME280;3625;51.762;14.320;2022-12-24T11:53:04;100238.69;;;9.74;100.00
7168;BME280;3625;51.762;14.320;2022-12-24T11:55:42;100224.78;;;9.66;100.00
7168;BME280;3625;51.762;14.320;2022-12-24T11:58:22;100224.97;;;9.59;100.00
7168;BME280;3625;51.762;14.320;2022-12-24T12:01:15;100220.69;;;9.52;100.00
7168;BME280;3625;51.762;14.320;2022-12-24T12:03:48;100230.41;;;9.51;100.00
7168;BME280;3625;51.762;14.320;2022-12-24T12:06:34;100238.34;;;9.51;100.00
7168;BME280;3625;51.762;14.320;2022-12-24T12:09:13;100244.44;;;9.53;100.00
7168;BME280;3625;51.762;14.320;2022-12-24T12:11:49;100135.69;;;8.94;100.00
7168;BME280;3625;51.762;14.320;2022-12-24T12:14:24;100252.22;;;9.99;100.00
7168;BME280;3625;51.762;14.320;2022-12-24T12:17:01;100255.16;;;10.24;100.00
7168;BME280;3625;51.762;14.320;2022-12-24T12:19:41;100263.53;;;10.43;100.00
7168;BME280;3625;51.762;14.320;2022-12-24T12:22:25;100271.56;;;10.38;100.00
7168;BME280;3625;51.762;14.320;2022-12-24T12:24:58;100271.03;;;10.24;100.00
7168;BME280;3625;51.762;14.320;2022-12-24T12:27:36;100257.66;;;9.93;100.00
7168;BME280;3625;51.762;14.320;2022-12-24T12:30:15;100004.28;;;8.31;100.00
7168;BME280;3625;51.762;14.320;2022-12-24T12:32:54;100143.44;;;9.03;100.00
7168;BME280;3625;51.762;14.320;2022-12-24T12:35:32;100257.28;;;9.70;100.00
7168;BME280;3625;51.762;14.320;2022-12-24T12:38:07;100073.75;;;8.72;100.00
7168;BME280;3625;51.762;14.320;2022-12-24T12:41:20;100233.88;;;9.93;100.00
7168;BME280;3625;51.762;14.320;2022-12-24T12:44:28;100292.44;;;10.50;100.00
7168;BME280;3625;51.762;14.320;2022-12-24T12:47:35;100293.88;;;10.64;100.00
7168;BME280;3625;51.762;14.320;2022-12-24T12:50:16;100254.47;;;10.53;100.00
7168;BME280;3625;51.762;14.320;2022-12-24T12:53:27;100298.78;;;10.79;100.00
7168;BME280;3625;51.762;14.320;2022-12-24T12:56:11;100277.00;;;10.68;100.00
7168;BME280;3625;51.762;14.320;2022-12-24T12:58:49;100105.06;;;9.66;100.00
7168;BME280;3625;51.762;14.320;2022-12-24T13:01:28;100137.38;;;9.77;100.00
7168;BME280;3625;51.762;14.320;2022-12-24T13:08:14;100236.38;;;10.36;100.00
7168;BME280;3625;51.762;14.320;2022-12-24T13:11:01;100297.19;;;10.72;100.00
7168;BME280;3625;51.762;14.320;2022-12-24T13:14:15;100303.97;;;10.82;100.00
7168;BME280;3625;51.762;14.320;2022-12-24T13:20:25;100310.22;;;10.79;100.00
7168;BME280;3625;51.762;14.320;2022-12-24T13:22:59;100287.81;;;10.58;100.00
7168;BME280;3625;51.762;14.320;2022-12-24T13:25:38;100189.59;;;10.03;100.00
7168;BME280;3625;51.762;14.320;2022-12-24T13:28:34;100298.38;;;10.60;100.00
7168;BME280;3625;51.762;14.320;2022-12-24T13:31:26;100309.88;;;10.57;100.00
7168;BME280;3625;51.762;14.320;2022-12-24T13:34:00;100317.03;;;10.54;100.00
7168;BME280;3625;51.762;14.320;2022-12-24T13:40:14;100327.03;;;10.41;100.00
7168;BME280;3625;51.762;14.320;2022-12-24T13:43:06;100329.81;;;10.37;100.00
7168;BME280;3625;51.762;14.320;2022-12-24T13:45:48;100343.06;;;10.35;100.00
7168;BME280;3625;51.762;14.320;2022-12-24T13:48:32;100335.16;;;10.34;100.00
7168;BME280;3625;51.762;14.320;2022-12-24T13:51:19;100340.41;;;10.35;100.00
7168;BME280;3625;51.762;14.320;2022-12-24T13:53:58;100338.53;;;10.39;100.00
7168;BME280;3625;51.762;14.320;2022-12-24T13:56:29;100322.09;;;10.26;100.00
7168;BME280;3625;51.762;14.320;2022-12-24T13:59:23;100348.22;;;10.40;100.00
7168;BME280;3625;51.762;14.320;2022-12-24T14:01:59;100353.44;;;10.43;100.00
7168;BME280;3625;51.762;14.320;2022-12-24T14:04:33;100224.19;;;9.52;100.00
7168;BME280;3625;51.762;14.320;2022-12-24T14:07:04;100356.25;;;10.37;100.00
7168;BME280;3625;51.762;14.320;2022-12-24T14:09:33;100363.34;;;10.35;100.00